createdAt,value
2016-09-13T00:03:55.801Z,72.42
2016-09-13T00:08:52.387Z,72.16
2016-09-13T00:13:48.981Z,71.87
2016-09-13T00:18:45.880Z,71.74
2016-09-13T00:23:43.085Z,72.26
2016-09-13T00:28:42.543Z,71.58
2016-09-13T00:33:38.610Z,71.48
2016-09-13T00:38:35.252Z,72.13
2016-09-13T00:43:34.328Z,71.74
2016-09-13T00:48:30.301Z,71.84
2016-09-13T00:53:28.003Z,72.22
2016-09-13T00:58:24.236Z,72.32
2016-09-13T01:03:23.304Z,72.22
2016-09-13T01:08:19.352Z,71.45
2016-09-13T01:13:15.894Z,71.36
2016-09-13T01:18:12.556Z,71.55
2016-09-13T01:23:09.023Z,71.36
2016-09-13T01:28:05.598Z,71.16
2016-09-13T01:33:02.346Z,71.55
2016-09-13T01:37:59.316Z,71.16
2016-09-13T01:42:55.720Z,71.55
2016-09-13T01:47:52.187Z,71.16
2016-09-13T01:52:48.759Z,71.74
2016-09-13T01:57:46.400Z,71.64
2016-09-13T02:02:43.090Z,72.03
2016-09-13T02:07:39.606Z,71.64
2016-09-13T02:12:36.301Z,71.94
2016-09-13T02:17:32.855Z,72.22
2016-09-13T02:22:29.836Z,72.13
2016-09-13T02:27:26.342Z,71.90
2016-09-13T02:32:22.995Z,72.28
2016-09-13T02:37:19.917Z,72.22
2016-09-13T02:42:16.673Z,72.13
2016-09-13T02:47:13.362Z,72.67
2016-09-13T02:52:11.086Z,72.19
2016-09-13T02:57:07.434Z,72.19
2016-09-13T03:02:04.066Z,72.38
2016-09-13T03:07:00.707Z,72.28
2016-09-13T03:11:57.305Z,72.67
2016-09-13T03:16:53.762Z,72.58
2016-09-13T03:21:50.317Z,72.86
2016-09-13T03:26:46.986Z,72.09
2016-09-13T03:31:43.632Z,72.48
2016-09-13T03:36:40.211Z,72.48
2016-09-13T03:41:36.957Z,72.48
2016-09-13T03:46:33.665Z,72.19
2016-09-13T03:51:30.420Z,72.19
2016-09-13T03:56:29.397Z,72.09
2016-09-13T04:01:25.458Z,71.90
2016-09-13T04:06:21.983Z,72.09
2016-09-13T04:11:18.887Z,72.28
2016-09-13T04:16:17.943Z,71.70
2016-09-13T04:21:13.967Z,72.19
2016-09-13T04:26:10.538Z,72.15
2016-09-13T04:31:07.153Z,72.25
2016-09-13T04:36:03.744Z,72.09
2016-09-13T04:41:00.385Z,72.15
2016-09-13T04:45:57.136Z,72.06
2016-09-13T04:50:53.538Z,72.06
2016-09-13T04:55:50.150Z,71.90
2016-09-13T05:00:46.695Z,71.86
2016-09-13T05:05:43.303Z,72.54
2016-09-13T05:10:39.893Z,72.38
2016-09-13T05:15:36.651Z,72.06
2016-09-13T05:20:33.226Z,72.34
2016-09-13T05:25:29.974Z,72.38
2016-09-13T05:30:26.642Z,72.00
2016-09-13T05:35:24.030Z,72.00
2016-09-13T05:40:20.983Z,72.19
2016-09-13T05:45:17.738Z,71.90
2016-09-13T05:50:14.405Z,71.61
2016-09-13T05:55:12.389Z,71.90
2016-09-13T06:00:08.957Z,71.61
2016-09-13T06:05:05.575Z,71.22
2016-09-13T06:10:02.126Z,71.70
2016-09-13T06:14:58.904Z,71.06
2016-09-13T06:19:55.623Z,71.06
2016-09-13T06:24:52.224Z,70.48
2016-09-13T06:29:48.877Z,69.56
2016-09-13T06:34:45.981Z,69.17
2016-09-13T06:39:42.773Z,69.36
2016-09-13T06:44:39.510Z,68.91
2016-09-13T06:49:35.942Z,68.33
2016-09-13T06:54:32.751Z,68.88
2016-09-13T06:59:29.952Z,68.33
2016-09-13T07:04:26.699Z,68.72
2016-09-13T07:09:26.025Z,68.14
2016-09-13T07:14:21.983Z,68.24
2016-09-13T07:19:18.968Z,67.75
2016-09-13T07:24:17.093Z,68.04
2016-09-13T07:29:13.516Z,68.27
2016-09-13T07:34:10.228Z,68.27
2016-09-13T07:39:06.717Z,67.59
2016-09-13T07:44:03.600Z,66.75
2016-09-13T07:49:02.707Z,66.27
2016-09-13T07:53:58.713Z,65.79
2016-09-13T07:58:56.590Z,65.62
2016-09-13T08:03:53.102Z,64.40
2016-09-13T08:08:51.188Z,61.46
2016-09-13T08:13:47.945Z,58.25
2016-09-13T08:18:45.408Z,56.82
2016-09-13T08:23:42.626Z,57.01
2016-09-13T08:28:39.605Z,57.21
2016-09-13T08:33:37.745Z,57.67
2016-09-13T08:38:34.414Z,58.34
2016-09-13T08:43:31.351Z,58.34
2016-09-13T08:48:28.397Z,58.25
2016-09-13T08:53:26.131Z,58.93
2016-09-13T08:58:22.447Z,58.64
2016-09-13T09:03:18.391Z,59.48
2016-09-13T09:08:14.686Z,60.52
2016-09-13T09:13:13.841Z,60.61
2016-09-13T09:18:10.588Z,61.68
2016-09-13T09:23:07.267Z,61.88
2016-09-13T09:28:04.426Z,62.75
2016-09-13T09:33:01.127Z,62.91
2016-09-13T09:37:57.647Z,63.20
2016-09-13T09:42:56.814Z,63.49
2016-09-13T09:47:53.165Z,64.47
2016-09-13T09:52:50.352Z,64.07
2016-09-13T09:57:47.054Z,65.34
2016-09-13T10:02:43.681Z,65.43
2016-09-13T10:07:41.415Z,65.43
2016-09-13T10:12:37.798Z,65.62
2016-09-13T10:17:34.725Z,65.34
2016-09-13T10:22:31.276Z,65.53
2016-09-13T10:27:28.374Z,65.34
2016-09-13T10:32:25.107Z,65.34
2016-09-13T10:37:21.885Z,65.24
2016-09-13T10:42:18.414Z,64.95
2016-09-13T10:47:15.056Z,63.98
2016-09-13T10:52:11.876Z,65.34
2016-09-13T10:57:08.724Z,65.92
2016-09-13T11:02:05.338Z,64.50
2016-09-13T11:07:02.044Z,64.69
2016-09-13T11:11:59.091Z,65.47
2016-09-13T11:16:55.637Z,64.40
2016-09-13T11:21:54.897Z,63.23
2016-09-13T11:26:51.117Z,63.13
2016-09-13T11:31:47.708Z,63.17
2016-09-13T11:36:45.623Z,62.88
2016-09-13T11:41:42.066Z,62.88
2016-09-13T11:46:38.645Z,60.35
2016-09-13T11:51:35.306Z,61.71
2016-09-13T11:56:31.963Z,61.84
2016-09-13T12:01:28.656Z,62.78
2016-09-13T12:06:25.354Z,61.61
2016-09-13T12:11:21.817Z,63.07
2016-09-13T12:16:18.816Z,63.17
2016-09-13T12:21:15.819Z,62.52
2016-09-13T12:26:12.414Z,60.38
2016-09-13T12:31:09.183Z,59.80
2016-09-13T12:36:05.867Z,60.09
2016-09-13T12:41:02.629Z,60.09
2016-09-13T12:45:59.378Z,59.22
2016-09-13T12:50:56.142Z,57.47
2016-09-13T12:55:52.662Z,56.04
2016-09-13T13:00:49.366Z,55.75
2016-09-13T13:05:46.016Z,54.97
2016-09-13T13:10:43.798Z,56.30
2016-09-13T13:15:40.175Z,56.30
2016-09-13T13:20:39.527Z,56.70
2016-09-13T13:25:35.401Z,54.56
2016-09-13T13:30:32.128Z,54.68
2016-09-13T13:35:28.824Z,55.07
2016-09-13T13:40:25.732Z,52.55
2016-09-13T13:45:22.443Z,54.88
2016-09-13T13:50:19.168Z,55.65
2016-09-13T13:55:16.252Z,55.53
2016-09-13T14:00:13.016Z,51.48
2016-09-13T14:05:10.144Z,49.82
2016-09-13T14:10:06.875Z,52.55
2016-09-13T14:15:03.595Z,54.75
2016-09-13T14:20:01.062Z,56.50
2016-09-13T14:24:57.761Z,57.37
2016-09-13T14:29:54.312Z,58.83
2016-09-13T14:34:50.940Z,59.12
2016-09-13T14:39:47.516Z,60.09
2016-09-13T14:44:44.210Z,60.84
2016-09-13T14:49:40.927Z,61.35
2016-09-13T14:54:37.601Z,61.55
2016-09-13T14:59:34.270Z,61.35
2016-09-13T15:04:30.951Z,61.45
2016-09-13T15:09:27.761Z,61.74
2016-09-13T15:14:24.486Z,61.91
2016-09-13T15:19:21.530Z,61.91
2016-09-13T15:24:18.178Z,63.17
2016-09-13T15:29:14.709Z,63.39
2016-09-13T15:34:11.615Z,63.26
2016-09-13T15:39:08.369Z,62.98
2016-09-13T15:44:04.842Z,63.26
2016-09-13T15:49:01.496Z,62.68
2016-09-13T15:53:58.106Z,62.49
2016-09-13T15:58:54.807Z,63.17
2016-09-13T16:03:51.444Z,64.43
2016-09-13T16:08:48.375Z,64.62
2016-09-13T16:13:45.136Z,63.95
2016-09-13T16:18:41.898Z,63.78
2016-09-13T16:23:38.442Z,62.71
2016-09-13T16:28:35.042Z,61.45
2016-09-13T16:33:32.966Z,62.19
2016-09-13T16:38:29.164Z,62.19
2016-09-13T16:43:25.845Z,61.81
2016-09-13T16:48:22.514Z,62.39
2016-09-13T16:53:19.209Z,61.91
2016-09-13T16:58:15.889Z,60.35
2016-09-13T17:03:14.415Z,58.73
2016-09-13T17:08:10.892Z,57.28
2016-09-13T17:13:08.627Z,56.11
2016-09-13T17:18:05.005Z,58.25
2016-09-13T17:23:01.637Z,61.55
2016-09-13T17:27:58.299Z,63.59
2016-09-13T17:32:54.812Z,63.01
2016-09-13T17:37:51.558Z,60.87
2016-09-13T17:42:48.253Z,60.28
2016-09-13T17:47:45.282Z,63.32
2016-09-13T17:52:42.439Z,62.45
2016-09-13T17:57:39.021Z,59.51
2016-09-13T18:02:35.665Z,61.07
2016-09-13T18:07:32.380Z,60.09
2016-09-13T18:12:29.422Z,62.62
2016-09-13T18:17:26.199Z,60.97
2016-09-13T18:22:24.255Z,59.64
2016-09-13T18:27:20.758Z,58.86
2016-09-13T18:32:18.762Z,58.28
2016-09-13T18:37:15.129Z,58.57
2016-09-13T18:42:11.868Z,59.31
2016-09-13T18:47:08.448Z,60.25
2016-09-13T18:52:05.151Z,61.04
2016-09-13T18:57:01.687Z,61.32
2016-09-13T19:01:58.544Z,61.39
2016-09-13T19:06:55.369Z,61.68
2016-09-13T19:11:52.115Z,61.78
2016-09-13T19:16:48.690Z,61.68
2016-09-13T19:21:45.366Z,61.68
2016-09-13T19:26:42.076Z,62.55
2016-09-13T19:31:41.124Z,61.49
2016-09-13T19:36:37.232Z,61.49
2016-09-13T19:41:33.887Z,60.13
2016-09-13T19:46:33.080Z,60.13
2016-09-13T19:51:29.297Z,60.42
2016-09-13T19:56:25.828Z,60.81
2016-09-13T20:01:22.341Z,60.00
2016-09-13T20:06:19.284Z,59.03
2016-09-13T20:11:15.940Z,59.03
2016-09-13T20:16:12.878Z,59.81
2016-09-13T20:21:10.118Z,60.00
2016-09-13T20:26:06.698Z,61.07
2016-09-13T20:31:03.458Z,59.81
2016-09-13T20:36:00.530Z,58.55
2016-09-13T20:40:57.209Z,58.74
2016-09-13T20:45:53.738Z,57.09
2016-09-13T20:50:50.650Z,58.84
2016-09-13T20:55:47.541Z,59.91
2016-09-13T21:00:44.407Z,60.75
2016-09-13T21:05:43.562Z,60.07
2016-09-13T21:10:39.726Z,59.88
2016-09-13T21:15:36.342Z,59.49
2016-09-13T21:20:33.095Z,60.07
2016-09-13T21:25:29.827Z,59.39
2016-09-13T21:30:26.761Z,59.20
2016-09-13T21:35:23.538Z,59.75
2016-09-13T21:40:20.059Z,59.36
2016-09-13T21:45:19.666Z,59.36
2016-09-13T21:50:15.725Z,59.66
2016-09-13T21:55:12.611Z,59.17
2016-09-13T22:00:09.533Z,59.75
2016-09-13T22:05:06.262Z,59.46
2016-09-13T22:10:02.947Z,59.66
2016-09-13T22:14:59.636Z,59.27
2016-09-13T22:19:56.681Z,59.56
2016-09-13T22:24:53.673Z,58.69
2016-09-13T22:29:50.221Z,58.30
2016-09-13T22:34:47.322Z,59.43
2016-09-13T22:39:44.075Z,58.98
2016-09-13T22:44:40.758Z,58.95
2016-09-13T22:49:37.476Z,58.56
2016-09-13T22:54:36.721Z,58.27
2016-09-13T22:59:32.687Z,59.23
2016-09-13T23:04:29.385Z,58.85
2016-09-13T23:09:26.095Z,59.05
2016-09-13T23:14:22.675Z,59.33
2016-09-13T23:19:22.227Z,59.91
2016-09-13T23:24:18.315Z,60.21
2016-09-13T23:29:15.397Z,60.11
2016-09-13T23:34:12.010Z,60.40
2016-09-13T23:39:08.613Z,60.30
2016-09-13T23:44:05.257Z,60.27
2016-09-13T23:49:01.816Z,60.47
2016-09-13T23:53:58.354Z,60.66
2016-09-13T23:58:54.970Z,60.66
